This is the latest recevied weather packets stored in our database for station/object HS9UAC-10. If no packets are shown the sender has not sent any weather packets the latest 10 day(s).
| Time | Temp. | Humidity | Pressure | Rain* | Wind** | Luminosity | Snow |
|---|---|---|---|---|---|---|---|
| 1777914776 | 34.44° C | 75% | 1008 hPa | - | - | 0 W/m² | - |
| 1777913852 | 35° C | 72% | 1008 hPa | - | - | 0 W/m² | - |
| 1777912927 | 35.56° C | 71% | 1008 hPa | - | - | 0 W/m² | - |
| 1777912002 | 35.56° C | 69% | 1009 hPa | - | - | 0 W/m² | - |
| 1777911078 | 35.56° C | 68% | 1009 hPa | - | - | 0 W/m² | - |
| 1777910153 | 36.11° C | 67% | 1009 hPa | - | - | 0 W/m² | - |
| 1777909229 | 36.11° C | 65% | 1009 hPa | - | - | 0 W/m² | - |
| 1777908304 | 36.67° C | 64% | 1008 hPa | - | - | 0 W/m² | - |
| 1777907380 | 36.67° C | 63% | 1008 hPa | - | - | 0 W/m² | - |
| 1777906455 | 36.67° C | 63% | 1008 hPa | - | - | 0 W/m² | - |
| 1777905531 | 36.67° C | 62% | 1008 hPa | - | - | 0 W/m² | - |
| 1777904606 | 37.22° C | 61% | 1008 hPa | - | - | 0 W/m² | - |
| 1777903681 | 37.22° C | 61% | 1008 hPa | - | - | 0 W/m² | - |
| 1777902606 | 36.67° C | 62% | 1008 hPa | - | - | 0 W/m² | - |
| 1777901675 | 36.11° C | 63% | 1007 hPa | - | - | 0 W/m² | - |
| 1777901081 | 36.67° C | 63% | 1007 hPa | - | - | 0 W/m² | - |
| 1777900090 | 36.67° C | 63% | 1007 hPa | - | - | 0 W/m² | - |
| 1777898880 | 36.11° C | 67% | 1007 hPa | - | - | 0 W/m² | - |
| 1777897960 | 36.67° C | 67% | 1006 hPa | - | - | 0 W/m² | - |
| 1777897230 | 35.56° C | 70% | 1006 hPa | - | - | 0 W/m² | - |
| 1777896030 | 36.11° C | 67% | 1006 hPa | - | - | 0 W/m² | - |
| 1777895109 | 36.67° C | 63% | 1006 hPa | - | - | 0 W/m² | - |
| 1777894123 | 36.67° C | 62% | 1006 hPa | - | - | 0 W/m² | - |
| 1777893203 | 37.22° C | 60% | 1006 hPa | - | - | 0 W/m² | - |
| 1777892365 | 37.22° C | 60% | 1005 hPa | - | - | 0 W/m² | - |
* Rain since midnight (hover to see other rain measurements)
** Current wind speed in m/s (hover to see current wind gust speed)